Terminal Aerodrome Forecast
Issued by NWS

Home | Current Version | Previous Version | Text Only | Print | Product List | Glossary On
Versions: 1 2 3 4 5 6 7 8 9 10 11 12 13 14 15
000
FTUS42 KTBW 061744
TAFRSW
TAF
KRSW 061744Z 0618/0718 31010KT P6SM FEW070
     FM062300 30010KT P6SM FEW250
     FM070400 VRB04KT P6SM SKC
     FM071400 36011KT P6SM FEW250=

USA.gov is the U.S. government's official web portal to all federal, state and local government web resources and services.